sensor_id;sensor_type;location;lat;lon;timestamp;temperature;humidity
41457;DHT22;27197;51.752;5.220;2022-08-05T00:00:45;25.60;64.90
41457;DHT22;27197;51.752;5.220;2022-08-05T00:03:18;25.60;62.60
41457;DHT22;27197;51.752;5.220;2022-08-05T00:05:52;25.60;61.30
41457;DHT22;27197;51.752;5.220;2022-08-05T00:08:20;25.60;61.60
41457;DHT22;27197;51.752;5.220;2022-08-05T00:10:57;25.60;68.70
41457;DHT22;27197;51.752;5.220;2022-08-05T00:13:29;25.60;65.30
41457;DHT22;27197;51.752;5.220;2022-08-05T00:16:02;25.60;62.90
41457;DHT22;27197;51.752;5.220;2022-08-05T00:18:37;25.60;63.30
41457;DHT22;27197;51.752;5.220;2022-08-05T00:21:09;25.60;62.00
41457;DHT22;27197;51.752;5.220;2022-08-05T00:23:39;25.60;64.60
41457;DHT22;27197;51.752;5.220;2022-08-05T00:26:12;25.60;62.50
41457;DHT22;27197;51.752;5.220;2022-08-05T00:28:44;25.70;68.90
41457;DHT22;27197;51.752;5.220;2022-08-05T00:31:13;25.60;65.90
41457;DHT22;27197;51.752;5.220;2022-08-05T00:33:42;25.60;64.20
41457;DHT22;27197;51.752;5.220;2022-08-05T00:36:15;25.70;69.10
41457;DHT22;27197;51.752;5.220;2022-08-05T00:38:44;25.60;68.20
41457;DHT22;27197;51.752;5.220;2022-08-05T00:41:26;25.70;65.50
41457;DHT22;27197;51.752;5.220;2022-08-05T00:44:02;25.70;68.00
41457;DHT22;27197;51.752;5.220;2022-08-05T00:46:33;25.60;65.60
41457;DHT22;27197;51.752;5.220;2022-08-05T00:49:03;25.60;69.00
41457;DHT22;27197;51.752;5.220;2022-08-05T00:51:32;25.70;66.20
41457;DHT22;27197;51.752;5.220;2022-08-05T00:54:03;25.60;64.30
41457;DHT22;27197;51.752;5.220;2022-08-05T00:56:33;25.60;64.10
41457;DHT22;27197;51.752;5.220;2022-08-05T00:59:04;25.60;69.50
41457;DHT22;27197;51.752;5.220;2022-08-05T01:01:38;25.60;69.80
41457;DHT22;27197;51.752;5.220;2022-08-05T01:04:08;25.70;67.70
41457;DHT22;27197;51.752;5.220;2022-08-05T01:06:39;25.60;68.70
41457;DHT22;27197;51.752;5.220;2022-08-05T01:09:12;25.60;68.30
41457;DHT22;27197;51.752;5.220;2022-08-05T01:11:41;25.60;65.40
41457;DHT22;27197;51.752;5.220;2022-08-05T01:17:19;25.60;69.70
41457;DHT22;27197;51.752;5.220;2022-08-05T01:22:57;25.60;63.30
41457;DHT22;27197;51.752;5.220;2022-08-05T01:31:33;25.60;68.50
41457;DHT22;27197;51.752;5.220;2022-08-05T01:34:09;25.60;68.90
41457;DHT22;27197;51.752;5.220;2022-08-05T01:36:46;25.60;69.80
41457;DHT22;27197;51.752;5.220;2022-08-05T01:39:09;25.60;69.80
41457;DHT22;27197;51.752;5.220;2022-08-05T01:41:44;25.60;69.90
41457;DHT22;27197;51.752;5.220;2022-08-05T01:44:18;25.60;69.90
41457;DHT22;27197;51.752;5.220;2022-08-05T01:46:52;25.60;69.70
41457;DHT22;27197;51.752;5.220;2022-08-05T01:49:24;25.60;68.10
41457;DHT22;27197;51.752;5.220;2022-08-05T01:52:00;25.60;69.60
41457;DHT22;27197;51.752;5.220;2022-08-05T01:54:39;25.60;68.20
41457;DHT22;27197;51.752;5.220;2022-08-05T01:57:09;25.60;68.80
41457;DHT22;27197;51.752;5.220;2022-08-05T01:59:42;25.60;69.50
41457;DHT22;27197;51.752;5.220;2022-08-05T02:02:13;25.60;67.00
41457;DHT22;27197;51.752;5.220;2022-08-05T02:04:48;25.60;69.50
41457;DHT22;27197;51.752;5.220;2022-08-05T02:07:23;25.60;66.80
41457;DHT22;27197;51.752;5.220;2022-08-05T02:09:53;25.60;69.20
41457;DHT22;27197;51.752;5.220;2022-08-05T02:15:23;25.60;69.10
41457;DHT22;27197;51.752;5.220;2022-08-05T02:18:01;25.60;67.20
41457;DHT22;27197;51.752;5.220;2022-08-05T02:20:46;25.60;67.00
41457;DHT22;27197;51.752;5.220;2022-08-05T02:23:18;25.60;64.30
41457;DHT22;27197;51.752;5.220;2022-08-05T02:25:50;25.60;64.60
41457;DHT22;27197;51.752;5.220;2022-08-05T02:28:27;25.60;68.60
41457;DHT22;27197;51.752;5.220;2022-08-05T02:31:04;25.60;68.70
41457;DHT22;27197;51.752;5.220;2022-08-05T02:33:32;25.60;66.70
41457;DHT22;27197;51.752;5.220;2022-08-05T02:36:04;25.60;67.70
41457;DHT22;27197;51.752;5.220;2022-08-05T02:38:37;25.60;68.40
41457;DHT22;27197;51.752;5.220;2022-08-05T02:41:11;25.60;67.40
41457;DHT22;27197;51.752;5.220;2022-08-05T02:43:44;25.50;64.80
41457;DHT22;27197;51.752;5.220;2022-08-05T02:46:14;25.50;67.30
41457;DHT22;27197;51.752;5.220;2022-08-05T02:48:47;25.50;62.90
41457;DHT22;27197;51.752;5.220;2022-08-05T02:51:21;25.40;61.40
41457;DHT22;27197;51.752;5.220;2022-08-05T02:53:51;25.40;61.10
41457;DHT22;27197;51.752;5.220;2022-08-05T02:56:23;25.30;63.80
41457;DHT22;27197;51.752;5.220;2022-08-05T02:58:55;25.40;63.50
41457;DHT22;27197;51.752;5.220;2022-08-05T03:01:26;25.40;63.50
41457;DHT22;27197;51.752;5.220;2022-08-05T03:04:02;25.40;61.70
41457;DHT22;27197;51.752;5.220;2022-08-05T03:06:34;25.40;63.60
41457;DHT22;27197;51.752;5.220;2022-08-05T03:09:10;25.40;66.00
41457;DHT22;27197;51.752;5.220;2022-08-05T03:11:41;25.40;62.80
41457;DHT22;27197;51.752;5.220;2022-08-05T03:14:14;25.40;63.50
41457;DHT22;27197;51.752;5.220;2022-08-05T03:16:44;25.40;64.10
41457;DHT22;27197;51.752;5.220;2022-08-05T03:19:13;25.40;62.90
41457;DHT22;27197;51.752;5.220;2022-08-05T03:21:46;25.40;66.70
41457;DHT22;27197;51.752;5.220;2022-08-05T03:24:18;25.40;66.70
41457;DHT22;27197;51.752;5.220;2022-08-05T03:26:50;25.40;65.50
41457;DHT22;27197;51.752;5.220;2022-08-05T03:29:19;25.40;61.00
41457;DHT22;27197;51.752;5.220;2022-08-05T03:31:51;25.40;62.20
41457;DHT22;27197;51.752;5.220;2022-08-05T03:34:23;25.50;67.30
41457;DHT22;27197;51.752;5.220;2022-08-05T03:36:54;25.50;67.90
41457;DHT22;27197;51.752;5.220;2022-08-05T03:39:25;25.50;67.30
41457;DHT22;27197;51.752;5.220;2022-08-05T03:41:58;25.50;68.00
41457;DHT22;27197;51.752;5.220;2022-08-05T03:44:27;25.50;65.40
41457;DHT22;27197;51.752;5.220;2022-08-05T03:47:00;25.50;67.30
41457;DHT22;27197;51.752;5.220;2022-08-05T03:49:30;25.50;67.90
41457;DHT22;27197;51.752;5.220;2022-08-05T03:52:05;25.50;65.10
41457;DHT22;27197;51.752;5.220;2022-08-05T03:54:37;25.40;63.00
41457;DHT22;27197;51.752;5.220;2022-08-05T03:57:08;25.50;67.70
41457;DHT22;27197;51.752;5.220;2022-08-05T03:59:44;25.50;67.90
41457;DHT22;27197;51.752;5.220;2022-08-05T04:02:15;25.50;68.00
41457;DHT22;27197;51.752;5.220;2022-08-05T04:04:47;25.50;67.90
41457;DHT22;27197;51.752;5.220;2022-08-05T04:07:21;25.50;66.80
41457;DHT22;27197;51.752;5.220;2022-08-05T04:09:54;25.50;67.60
41457;DHT22;27197;51.752;5.220;2022-08-05T04:12:24;25.50;67.80
41457;DHT22;27197;51.752;5.220;2022-08-05T04:14:55;25.50;66.00
41457;DHT22;27197;51.752;5.220;2022-08-05T04:17:24;25.50;67.80
41457;DHT22;27197;51.752;5.220;2022-08-05T04:19:53;25.50;67.70
41457;DHT22;27197;51.752;5.220;2022-08-05T04:22:27;25.50;68.00
41457;DHT22;27197;51.752;5.220;2022-08-05T04:24:55;25.50;67.90
41457;DHT22;27197;51.752;5.220;2022-08-05T04:27:25;25.50;66.90
41457;DHT22;27197;51.752;5.220;2022-08-05T04:30:00;25.50;67.90
41457;DHT22;27197;51.752;5.220;2022-08-05T04:32:29;25.50;67.80
41457;DHT22;27197;51.752;5.220;2022-08-05T04:35:00;25.40;66.60
41457;DHT22;27197;51.752;5.220;2022-08-05T04:37:32;25.50;67.60
41457;DHT22;27197;51.752;5.220;2022-08-05T04:40:01;25.50;67.60
41457;DHT22;27197;51.752;5.220;2022-08-05T04:42:34;25.40;67.30
41457;DHT22;27197;51.752;5.220;2022-08-05T04:45:04;25.40;67.50
41457;DHT22;27197;51.752;5.220;2022-08-05T04:47:35;25.50;67.80
41457;DHT22;27197;51.752;5.220;2022-08-05T04:50:06;25.40;67.50
41457;DHT22;27197;51.752;5.220;2022-08-05T04:52:39;25.40;67.60
41457;DHT22;27197;51.752;5.220;2022-08-05T04:55:09;25.40;67.40
41457;DHT22;27197;51.752;5.220;2022-08-05T04:57:39;25.50;67.10
41457;DHT22;27197;51.752;5.220;2022-08-05T05:00:11;25.40;67.80
41457;DHT22;27197;51.752;5.220;2022-08-05T05:02:42;25.40;67.50
41457;DHT22;27197;51.752;5.220;2022-08-05T05:05:13;25.40;67.20
41457;DHT22;27197;51.752;5.220;2022-08-05T05:07:45;25.40;67.50
41457;DHT22;27197;51.752;5.220;2022-08-05T05:10:16;25.40;67.00
41457;DHT22;27197;51.752;5.220;2022-08-05T05:12:51;25.40;67.70
41457;DHT22;27197;51.752;5.220;2022-08-05T05:15:21;25.40;67.70
41457;DHT22;27197;51.752;5.220;2022-08-05T05:17:51;25.40;67.40
41457;DHT22;27197;51.752;5.220;2022-08-05T05:20:21;25.40;67.20
41457;DHT22;27197;51.752;5.220;2022-08-05T05:22:56;25.40;67.60
41457;DHT22;27197;51.752;5.220;2022-08-05T05:25:28;25.40;67.50
41457;DHT22;27197;51.752;5.220;2022-08-05T05:28:01;25.40;67.40
41457;DHT22;27197;51.752;5.220;2022-08-05T05:30:31;25.40;66.10
41457;DHT22;27197;51.752;5.220;2022-08-05T05:33:03;25.40;67.30
41457;DHT22;27197;51.752;5.220;2022-08-05T05:35:39;25.40;67.40
41457;DHT22;27197;51.752;5.220;2022-08-05T05:38:08;25.40;67.50
41457;DHT22;27197;51.752;5.220;2022-08-05T05:40:38;25.40;67.50
41457;DHT22;27197;51.752;5.220;2022-08-05T05:43:14;25.40;67.60
41457;DHT22;27197;51.752;5.220;2022-08-05T05:45:44;25.40;67.90
41457;DHT22;27197;51.752;5.220;2022-08-05T05:48:20;25.40;67.90
41457;DHT22;27197;51.752;5.220;2022-08-05T05:50:52;25.40;67.50
41457;DHT22;27197;51.752;5.220;2022-08-05T05:53:23;25.40;67.80
41457;DHT22;27197;51.752;5.220;2022-08-05T05:55:56;25.40;67.70
41457;DHT22;27197;51.752;5.220;2022-08-05T05:58:26;25.40;67.60
41457;DHT22;27197;51.752;5.220;2022-08-05T06:00:57;25.40;67.20
41457;DHT22;27197;51.752;5.220;2022-08-05T06:03:30;25.40;67.20
41457;DHT22;27197;51.752;5.220;2022-08-05T06:06:01;25.40;66.60
41457;DHT22;27197;51.752;5.220;2022-08-05T06:08:33;25.40;66.50
41457;DHT22;27197;51.752;5.220;2022-08-05T06:11:05;25.40;66.30
41457;DHT22;27197;51.752;5.220;2022-08-05T06:13:38;25.40;66.20
41457;DHT22;27197;51.752;5.220;2022-08-05T06:16:08;25.40;66.20
41457;DHT22;27197;51.752;5.220;2022-08-05T06:18:38;25.40;65.80
41457;DHT22;27197;51.752;5.220;2022-08-05T06:21:08;25.40;65.90
41457;DHT22;27197;51.752;5.220;2022-08-05T06:23:38;25.40;65.80
41457;DHT22;27197;51.752;5.220;2022-08-05T06:26:09;25.40;65.60
41457;DHT22;27197;51.752;5.220;2022-08-05T06:28:40;25.40;65.60
41457;DHT22;27197;51.752;5.220;2022-08-05T06:31:14;25.40;65.60
41457;DHT22;27197;51.752;5.220;2022-08-05T06:33:42;25.40;65.70
41457;DHT22;27197;51.752;5.220;2022-08-05T06:36:17;25.50;64.50
41457;DHT22;27197;51.752;5.220;2022-08-05T06:38:45;25.40;65.40
41457;DHT22;27197;51.752;5.220;2022-08-05T06:41:17;25.40;65.40
41457;DHT22;27197;51.752;5.220;2022-08-05T06:43:46;25.40;64.80
41457;DHT22;27197;51.752;5.220;2022-08-05T06:46:18;25.40;65.00
41457;DHT22;27197;51.752;5.220;2022-08-05T06:48:51;25.40;65.00
41457;DHT22;27197;51.752;5.220;2022-08-05T06:51:26;25.40;65.10
41457;DHT22;27197;51.752;5.220;2022-08-05T06:53:58;25.40;65.70
41457;DHT22;27197;51.752;5.220;2022-08-05T06:56:31;25.40;63.80
41457;DHT22;27197;51.752;5.220;2022-08-05T06:59:04;25.50;65.60
41457;DHT22;27197;51.752;5.220;2022-08-05T07:01:38;25.50;65.50
41457;DHT22;27197;51.752;5.220;2022-08-05T07:04:11;25.40;63.00
41457;DHT22;27197;51.752;5.220;2022-08-05T07:06:45;25.40;64.90
41457;DHT22;27197;51.752;5.220;2022-08-05T07:09:14;25.50;64.30
41457;DHT22;27197;51.752;5.220;2022-08-05T07:11:48;25.40;63.90
41457;DHT22;27197;51.752;5.220;2022-08-05T07:14:18;25.30;64.10
41457;DHT22;27197;51.752;5.220;2022-08-05T07:17:03;25.40;64.20
41457;DHT22;27197;51.752;5.220;2022-08-05T07:19:38;25.20;62.00
41457;DHT22;27197;51.752;5.220;2022-08-05T07:22:06;25.20;63.00
41457;DHT22;27197;51.752;5.220;2022-08-05T07:24:38;25.20;65.10
41457;DHT22;27197;51.752;5.220;2022-08-05T07:27:10;25.30;65.40
41457;DHT22;27197;51.752;5.220;2022-08-05T07:29:39;25.40;65.60
41457;DHT22;27197;51.752;5.220;2022-08-05T07:32:13;25.50;67.30
41457;DHT22;27197;51.752;5.220;2022-08-05T07:34:44;25.40;67.90
41457;DHT22;27197;51.752;5.220;2022-08-05T07:37:19;25.50;67.70
41457;DHT22;27197;51.752;5.220;2022-08-05T07:39:51;25.50;67.70
41457;DHT22;27197;51.752;5.220;2022-08-05T07:45:11;25.40;69.00
41457;DHT22;27197;51.752;5.220;2022-08-05T07:47:44;25.50;72.20
41457;DHT22;27197;51.752;5.220;2022-08-05T07:50:13;25.50;74.50
41457;DHT22;27197;51.752;5.220;2022-08-05T07:52:47;25.50;74.10
41457;DHT22;27197;51.752;5.220;2022-08-05T07:55:18;25.50;71.60
41457;DHT22;27197;51.752;5.220;2022-08-05T07:57:48;25.50;70.60
41457;DHT22;27197;51.752;5.220;2022-08-05T08:00:23;25.50;68.70
41457;DHT22;27197;51.752;5.220;2022-08-05T08:02:54;25.50;68.80
41457;DHT22;27197;51.752;5.220;2022-08-05T08:05:25;25.50;68.70
41457;DHT22;27197;51.752;5.220;2022-08-05T08:07:55;25.50;66.20
41457;DHT22;27197;51.752;5.220;2022-08-05T08:10:26;25.50;69.40
41457;DHT22;27197;51.752;5.220;2022-08-05T08:12:57;25.50;68.00
41457;DHT22;27197;51.752;5.220;2022-08-05T08:15:30;25.30;67.30
41457;DHT22;27197;51.752;5.220;2022-08-05T08:18:00;25.20;65.60
41457;DHT22;27197;51.752;5.220;2022-08-05T08:20:34;25.10;64.70
41457;DHT22;27197;51.752;5.220;2022-08-05T08:23:03;25.00;64.20
41457;DHT22;27197;51.752;5.220;2022-08-05T08:25:37;25.00;63.30
41457;DHT22;27197;51.752;5.220;2022-08-05T08:28:08;25.00;63.40
41457;DHT22;27197;51.752;5.220;2022-08-05T08:30:40;24.90;62.90
41457;DHT22;27197;51.752;5.220;2022-08-05T08:33:10;24.90;63.20
41457;DHT22;27197;51.752;5.220;2022-08-05T08:35:43;24.90;63.10
41457;DHT22;27197;51.752;5.220;2022-08-05T08:38:12;24.90;63.60
41457;DHT22;27197;51.752;5.220;2022-08-05T08:40:45;24.90;63.90
41457;DHT22;27197;51.752;5.220;2022-08-05T08:43:17;24.90;63.40
41457;DHT22;27197;51.752;5.220;2022-08-05T08:45:50;24.90;64.90
41457;DHT22;27197;51.752;5.220;2022-08-05T08:48:23;24.90;64.60
41457;DHT22;27197;51.752;5.220;2022-08-05T08:50:54;24.90;65.60
41457;DHT22;27197;51.752;5.220;2022-08-05T08:53:30;24.90;67.00
41457;DHT22;27197;51.752;5.220;2022-08-05T08:56:03;24.90;65.40
41457;DHT22;27197;51.752;5.220;2022-08-05T08:58:36;24.90;67.00
41457;DHT22;27197;51.752;5.220;2022-08-05T09:01:07;24.90;65.80
41457;DHT22;27197;51.752;5.220;2022-08-05T09:03:41;24.90;66.40
41457;DHT22;27197;51.752;5.220;2022-08-05T09:06:15;24.90;67.40
41457;DHT22;27197;51.752;5.220;2022-08-05T09:11:36;24.90;63.50
41457;DHT22;27197;51.752;5.220;2022-08-05T09:14:09;24.90;66.90
41457;DHT22;27197;51.752;5.220;2022-08-05T09:16:43;24.90;67.00
41457;DHT22;27197;51.752;5.220;2022-08-05T09:19:14;24.90;65.40
41457;DHT22;27197;51.752;5.220;2022-08-05T09:21:47;24.90;66.80
41457;DHT22;27197;51.752;5.220;2022-08-05T09:24:18;24.80;65.20
41457;DHT22;27197;51.752;5.220;2022-08-05T09:26:51;24.90;66.50
41457;DHT22;27197;51.752;5.220;2022-08-05T09:29:35;24.90;66.20
41457;DHT22;27197;51.752;5.220;2022-08-05T09:32:07;24.90;62.20
41457;DHT22;27197;51.752;5.220;2022-08-05T09:34:50;24.80;66.50
41457;DHT22;27197;51.752;5.220;2022-08-05T09:37:25;24.80;66.30
41457;DHT22;27197;51.752;5.220;2022-08-05T09:39:56;24.80;66.00
41457;DHT22;27197;51.752;5.220;2022-08-05T09:42:37;24.80;65.50
41457;DHT22;27197;51.752;5.220;2022-08-05T09:45:04;24.90;65.60
41457;DHT22;27197;51.752;5.220;2022-08-05T09:47:31;24.80;65.10
41457;DHT22;27197;51.752;5.220;2022-08-05T09:50:03;24.90;65.10
41457;DHT22;27197;51.752;5.220;2022-08-05T09:52:35;24.90;65.00
41457;DHT22;27197;51.752;5.220;2022-08-05T09:55:10;24.80;64.10
41457;DHT22;27197;51.752;5.220;2022-08-05T09:57:43;24.80;65.70
41457;DHT22;27197;51.752;5.220;2022-08-05T10:00:18;24.80;63.60
41457;DHT22;27197;51.752;5.220;2022-08-05T10:02:51;24.80;64.90
41457;DHT22;27197;51.752;5.220;2022-08-05T10:05:27;24.80;64.60
41457;DHT22;27197;51.752;5.220;2022-08-05T10:08:05;24.80;64.90
41457;DHT22;27197;51.752;5.220;2022-08-05T10:10:47;24.80;64.30
41457;DHT22;27197;51.752;5.220;2022-08-05T10:13:32;24.80;64.60
41457;DHT22;27197;51.752;5.220;2022-08-05T10:16:07;24.80;64.30
41457;DHT22;27197;51.752;5.220;2022-08-05T10:18:38;24.80;64.70
41457;DHT22;27197;51.752;5.220;2022-08-05T10:21:09;24.70;64.70
41457;DHT22;27197;51.752;5.220;2022-08-05T10:23:43;24.80;64.10
41457;DHT22;27197;51.752;5.220;2022-08-05T10:26:14;24.80;64.80
41457;DHT22;27197;51.752;5.220;2022-08-05T10:28:50;24.70;63.90
41457;DHT22;27197;51.752;5.220;2022-08-05T10:31:19;24.70;63.80
41457;DHT22;27197;51.752;5.220;2022-08-05T10:33:51;24.80;63.90
41457;DHT22;27197;51.752;5.220;2022-08-05T10:36:21;24.70;64.60
41457;DHT22;27197;51.752;5.220;2022-08-05T10:38:58;24.80;63.40
41457;DHT22;27197;51.752;5.220;2022-08-05T10:41:38;24.70;63.80
41457;DHT22;27197;51.752;5.220;2022-08-05T10:44:08;24.70;64.20
41457;DHT22;27197;51.752;5.220;2022-08-05T10:46:53;24.60;64.30
41457;DHT22;27197;51.752;5.220;2022-08-05T10:49:22;24.60;64.30
41457;DHT22;27197;51.752;5.220;2022-08-05T10:51:55;24.50;64.10
41457;DHT22;27197;51.752;5.220;2022-08-05T10:54:47;24.50;64.80
41457;DHT22;27197;51.752;5.220;2022-08-05T10:57:26;24.50;63.80
41457;DHT22;27197;51.752;5.220;2022-08-05T11:00:16;24.50;65.10
41457;DHT22;27197;51.752;5.220;2022-08-05T11:03:08;24.50;64.90
41457;DHT22;27197;51.752;5.220;2022-08-05T11:05:39;24.40;64.30
41457;DHT22;27197;51.752;5.220;2022-08-05T11:08:12;24.30;64.20
41457;DHT22;27197;51.752;5.220;2022-08-05T11:10:40;24.30;64.30
41457;DHT22;27197;51.752;5.220;2022-08-05T11:13:23;24.30;64.00
41457;DHT22;27197;51.752;5.220;2022-08-05T11:15:43;24.30;64.10
41457;DHT22;27197;51.752;5.220;2022-08-05T11:18:29;24.30;64.10
41457;DHT22;27197;51.752;5.220;2022-08-05T11:21:02;24.30;64.20
41457;DHT22;27197;51.752;5.220;2022-08-05T11:23:50;24.40;64.10
41457;DHT22;27197;51.752;5.220;2022-08-05T11:26:21;24.40;64.30
41457;DHT22;27197;51.752;5.220;2022-08-05T11:28:53;24.40;64.30
41457;DHT22;27197;51.752;5.220;2022-08-05T11:31:26;24.40;64.10
41457;DHT22;27197;51.752;5.220;2022-08-05T11:34:03;24.40;64.10
41457;DHT22;27197;51.752;5.220;2022-08-05T11:36:45;24.40;64.10
41457;DHT22;27197;51.752;5.220;2022-08-05T11:39:45;24.40;64.30
41457;DHT22;27197;51.752;5.220;2022-08-05T11:41:53;24.40;64.30
41457;DHT22;27197;51.752;5.220;2022-08-05T11:44:24;24.40;64.30
41457;DHT22;27197;51.752;5.220;2022-08-05T11:46:57;24.40;64.20
41457;DHT22;27197;51.752;5.220;2022-08-05T11:49:27;24.40;64.20
41457;DHT22;27197;51.752;5.220;2022-08-05T11:52:00;24.40;64.20
41457;DHT22;27197;51.752;5.220;2022-08-05T11:54:32;24.40;64.20
41457;DHT22;27197;51.752;5.220;2022-08-05T11:57:04;24.40;64.50
41457;DHT22;27197;51.752;5.220;2022-08-05T11:59:35;24.40;64.20
41457;DHT22;27197;51.752;5.220;2022-08-05T12:02:08;24.40;64.10
41457;DHT22;27197;51.752;5.220;2022-08-05T12:04:45;24.40;64.30
41457;DHT22;27197;51.752;5.220;2022-08-05T12:07:17;24.40;64.20
41457;DHT22;27197;51.752;5.220;2022-08-05T12:09:54;24.40;64.10
41457;DHT22;27197;51.752;5.220;2022-08-05T12:12:28;24.50;63.90
41457;DHT22;27197;51.752;5.220;2022-08-05T12:15:02;24.40;63.90
41457;DHT22;27197;51.752;5.220;2022-08-05T12:17:34;24.40;63.90
41457;DHT22;27197;51.752;5.220;2022-08-05T12:20:06;24.40;63.90
41457;DHT22;27197;51.752;5.220;2022-08-05T12:22:40;24.50;64.10
41457;DHT22;27197;51.752;5.220;2022-08-05T12:25:14;24.50;64.20
41457;DHT22;27197;51.752;5.220;2022-08-05T12:27:45;24.50;64.10
41457;DHT22;27197;51.752;5.220;2022-08-05T12:30:18;24.40;64.00
41457;DHT22;27197;51.752;5.220;2022-08-05T12:32:49;24.40;62.70
41457;DHT22;27197;51.752;5.220;2022-08-05T12:35:23;24.50;63.90
41457;DHT22;27197;51.752;5.220;2022-08-05T12:37:51;24.50;63.90
41457;DHT22;27197;51.752;5.220;2022-08-05T12:40:26;24.40;63.90
41457;DHT22;27197;51.752;5.220;2022-08-05T12:42:56;24.40;63.80
41457;DHT22;27197;51.752;5.220;2022-08-05T12:45:24;24.40;63.80
41457;DHT22;27197;51.752;5.220;2022-08-05T12:47:54;24.50;63.90
41457;DHT22;27197;51.752;5.220;2022-08-05T12:50:28;24.40;63.80
41457;DHT22;27197;51.752;5.220;2022-08-05T12:53:02;24.50;63.70
41457;DHT22;27197;51.752;5.220;2022-08-05T12:55:32;24.50;63.70
41457;DHT22;27197;51.752;5.220;2022-08-05T12:58:03;24.50;64.30
41457;DHT22;27197;51.752;5.220;2022-08-05T13:00:32;24.50;64.00
41457;DHT22;27197;51.752;5.220;2022-08-05T13:03:06;24.60;64.10
41457;DHT22;27197;51.752;5.220;2022-08-05T13:05:38;24.50;64.40
41457;DHT22;27197;51.752;5.220;2022-08-05T13:08:11;24.50;64.70
41457;DHT22;27197;51.752;5.220;2022-08-05T13:10:46;24.40;64.70
41457;DHT22;27197;51.752;5.220;2022-08-05T13:13:18;24.50;64.70
41457;DHT22;27197;51.752;5.220;2022-08-05T13:15:48;24.50;64.80
41457;DHT22;27197;51.752;5.220;2022-08-05T13:18:21;24.50;64.70
41457;DHT22;27197;51.752;5.220;2022-08-05T13:20:54;24.50;64.30
41457;DHT22;27197;51.752;5.220;2022-08-05T13:23:27;24.50;64.70
41457;DHT22;27197;51.752;5.220;2022-08-05T13:26:02;24.40;64.70
41457;DHT22;27197;51.752;5.220;2022-08-05T13:28:31;24.40;65.00
41457;DHT22;27197;51.752;5.220;2022-08-05T13:31:02;24.40;64.80
41457;DHT22;27197;51.752;5.220;2022-08-05T13:33:37;24.40;65.50
41457;DHT22;27197;51.752;5.220;2022-08-05T13:36:11;24.40;64.70
41457;DHT22;27197;51.752;5.220;2022-08-05T13:38:39;24.40;64.40
41457;DHT22;27197;51.752;5.220;2022-08-05T13:41:10;24.40;64.50
41457;DHT22;27197;51.752;5.220;2022-08-05T13:43:42;24.40;64.40
41457;DHT22;27197;51.752;5.220;2022-08-05T13:46:16;24.40;64.30
41457;DHT22;27197;51.752;5.220;2022-08-05T13:48:48;24.40;64.10
41457;DHT22;27197;51.752;5.220;2022-08-05T13:51:30;24.40;64.30
41457;DHT22;27197;51.752;5.220;2022-08-05T13:53:59;24.40;64.20
41457;DHT22;27197;51.752;5.220;2022-08-05T13:56:28;24.40;65.50
41457;DHT22;27197;51.752;5.220;2022-08-05T13:58:59;24.40;65.90
41457;DHT22;27197;51.752;5.220;2022-08-05T14:01:31;24.50;64.90
41457;DHT22;27197;51.752;5.220;2022-08-05T14:04:06;24.60;64.50
41457;DHT22;27197;51.752;5.220;2022-08-05T14:06:53;24.60;65.10
41457;DHT22;27197;51.752;5.220;2022-08-05T14:09:26;24.70;65.10
41457;DHT22;27197;51.752;5.220;2022-08-05T14:11:55;24.70;64.50
41457;DHT22;27197;51.752;5.220;2022-08-05T14:14:25;24.70;65.30
41457;DHT22;27197;51.752;5.220;2022-08-05T14:16:57;24.70;65.00
41457;DHT22;27197;51.752;5.220;2022-08-05T14:19:29;24.70;65.40
41457;DHT22;27197;51.752;5.220;2022-08-05T14:21:59;24.70;66.00
41457;DHT22;27197;51.752;5.220;2022-08-05T14:24:30;24.70;66.00
41457;DHT22;27197;51.752;5.220;2022-08-05T14:27:05;24.70;66.20
41457;DHT22;27197;51.752;5.220;2022-08-05T14:29:38;24.70;66.10
41457;DHT22;27197;51.752;5.220;2022-08-05T14:32:13;24.70;66.40
41457;DHT22;27197;51.752;5.220;2022-08-05T14:34:42;24.70;66.90
41457;DHT22;27197;51.752;5.220;2022-08-05T14:37:21;24.70;67.80
41457;DHT22;27197;51.752;5.220;2022-08-05T14:39:50;24.70;67.80
41457;DHT22;27197;51.752;5.220;2022-08-05T14:42:19;24.70;66.60
41457;DHT22;27197;51.752;5.220;2022-08-05T14:44:49;24.70;66.50
41457;DHT22;27197;51.752;5.220;2022-08-05T14:47:24;24.70;65.90
41457;DHT22;27197;51.752;5.220;2022-08-05T14:49:52;24.70;66.50
41457;DHT22;27197;51.752;5.220;2022-08-05T14:52:22;24.70;66.10
41457;DHT22;27197;51.752;5.220;2022-08-05T14:54:54;24.70;66.20
41457;DHT22;27197;51.752;5.220;2022-08-05T14:57:24;24.70;65.40
41457;DHT22;27197;51.752;5.220;2022-08-05T14:59:53;24.70;65.50
41457;DHT22;27197;51.752;5.220;2022-08-05T15:02:24;24.70;65.00
41457;DHT22;27197;51.752;5.220;2022-08-05T15:04:56;24.70;65.10
41457;DHT22;27197;51.752;5.220;2022-08-05T15:07:26;24.70;65.00
41457;DHT22;27197;51.752;5.220;2022-08-05T15:09:59;24.70;65.00
41457;DHT22;27197;51.752;5.220;2022-08-05T15:12:29;24.70;64.80
41457;DHT22;27197;51.752;5.220;2022-08-05T15:15:01;24.70;64.60
41457;DHT22;27197;51.752;5.220;2022-08-05T15:17:30;24.70;64.10
41457;DHT22;27197;51.752;5.220;2022-08-05T15:20:00;24.80;64.60
41457;DHT22;27197;51.752;5.220;2022-08-05T15:22:31;24.80;64.50
41457;DHT22;27197;51.752;5.220;2022-08-05T15:25:03;24.80;64.30
41457;DHT22;27197;51.752;5.220;2022-08-05T15:27:33;24.80;64.00
41457;DHT22;27197;51.752;5.220;2022-08-05T15:30:05;24.80;63.70
41457;DHT22;27197;51.752;5.220;2022-08-05T15:32:36;24.80;64.00
41457;DHT22;27197;51.752;5.220;2022-08-05T15:35:09;24.80;64.10
41457;DHT22;27197;51.752;5.220;2022-08-05T15:37:43;24.80;64.30
41457;DHT22;27197;51.752;5.220;2022-08-05T15:40:13;24.80;63.80
41457;DHT22;27197;51.752;5.220;2022-08-05T15:42:44;24.90;62.80
41457;DHT22;27197;51.752;5.220;2022-08-05T15:45:17;24.90;62.00
41457;DHT22;27197;51.752;5.220;2022-08-05T15:47:46;25.00;63.00
41457;DHT22;27197;51.752;5.220;2022-08-05T15:50:16;25.10;64.10
41457;DHT22;27197;51.752;5.220;2022-08-05T15:52:48;25.00;64.60
41457;DHT22;27197;51.752;5.220;2022-08-05T15:55:19;24.90;64.90
41457;DHT22;27197;51.752;5.220;2022-08-05T15:57:46;24.90;64.60
41457;DHT22;27197;51.752;5.220;2022-08-05T16:00:18;24.80;64.60
41457;DHT22;27197;51.752;5.220;2022-08-05T16:02:48;24.90;63.90
41457;DHT22;27197;51.752;5.220;2022-08-05T16:05:18;24.90;65.10
41457;DHT22;27197;51.752;5.220;2022-08-05T16:07:48;25.00;62.90
41457;DHT22;27197;51.752;5.220;2022-08-05T16:10:18;25.10;63.90
41457;DHT22;27197;51.752;5.220;2022-08-05T16:12:49;25.10;63.90
41457;DHT22;27197;51.752;5.220;2022-08-05T16:15:19;25.10;63.30
41457;DHT22;27197;51.752;5.220;2022-08-05T16:17:50;25.10;63.10
41457;DHT22;27197;51.752;5.220;2022-08-05T16:20:20;25.20;64.30
41457;DHT22;27197;51.752;5.220;2022-08-05T16:22:52;25.10;63.70